createdAt,value
2017-11-03T00:01:41.802Z,76.90
2017-11-03T00:04:09.990Z,77.10
2017-11-03T00:06:38.120Z,76.90
2017-11-03T00:09:07.058Z,77.00
2017-11-03T00:11:35.201Z,77.00
2017-11-03T00:14:04.262Z,77.10
2017-11-03T00:16:32.396Z,77.10
2017-11-03T00:19:00.552Z,76.90
2017-11-03T00:21:28.821Z,76.90
2017-11-03T00:23:57.736Z,76.60
2017-11-03T00:26:25.914Z,76.60
2017-11-03T00:28:54.066Z,76.30
2017-11-03T00:31:22.209Z,76.40
2017-11-03T00:33:50.393Z,76.10
2017-11-03T00:36:19.302Z,75.90
2017-11-03T00:38:47.576Z,75.90
2017-11-03T00:41:15.718Z,75.50
2017-11-03T00:43:43.861Z,75.80
2017-11-03T00:46:12.026Z,76.10
2017-11-03T00:48:40.314Z,76.00
2017-11-03T00:51:08.466Z,75.90
2017-11-03T00:53:36.603Z,75.80
2017-11-03T00:56:05.603Z,76.00
2017-11-03T00:58:33.733Z,76.00
2017-11-03T01:01:01.873Z,75.80
2017-11-03T01:03:30.037Z,76.00
2017-11-03T01:05:58.181Z,76.00
2017-11-03T01:08:26.352Z,76.20
2017-11-03T01:10:54.514Z,76.20
2017-11-03T01:13:22.783Z,76.20
2017-11-03T01:15:50.952Z,76.30
2017-11-03T01:18:19.135Z,76.50
2017-11-03T01:20:47.276Z,76.50
2017-11-03T01:23:15.417Z,76.70
2017-11-03T01:25:44.458Z,77.00
2017-11-03T01:28:12.591Z,77.00
2017-11-03T01:30:40.793Z,76.90
2017-11-03T01:33:08.949Z,77.00
2017-11-03T01:35:37.133Z,76.80
2017-11-03T01:38:05.268Z,76.70
2017-11-03T01:40:33.425Z,76.80
2017-11-03T01:43:01.616Z,77.20
2017-11-03T01:45:30.513Z,77.40
2017-11-03T01:47:59.556Z,77.30
2017-11-03T01:50:27.701Z,77.30
2017-11-03T01:52:55.867Z,77.50
2017-11-03T01:55:24.037Z,77.10
2017-11-03T01:57:52.185Z,77.20
2017-11-03T02:00:20.352Z,77.40
2017-11-03T02:02:48.500Z,77.30
2017-11-03T02:05:16.795Z,77.30
2017-11-03T02:07:44.937Z,77.30
2017-11-03T02:10:13.087Z,77.70
2017-11-03T02:12:41.249Z,77.90
2017-11-03T02:15:09.382Z,78.00
2017-11-03T02:17:37.562Z,78.00
2017-11-03T02:20:05.697Z,78.20
2017-11-03T02:22:33.985Z,78.00
2017-11-03T02:25:02.126Z,77.90
2017-11-03T02:27:30.266Z,77.90
2017-11-03T02:29:58.444Z,77.50
2017-11-03T02:32:26.589Z,77.60
2017-11-03T02:34:54.781Z,77.40
2017-11-03T02:37:22.921Z,77.30
2017-11-03T02:39:51.060Z,77.20
2017-11-03T02:42:19.329Z,77.20
2017-11-03T02:44:48.236Z,76.80
2017-11-03T02:47:16.396Z,76.80
2017-11-03T02:49:44.565Z,76.60
2017-11-03T02:52:12.705Z,76.30
2017-11-03T02:54:40.852Z,76.20
2017-11-03T02:57:09.128Z,76.20
2017-11-03T02:59:37.302Z,76.30
2017-11-03T03:02:05.480Z,76.10
2017-11-03T03:04:33.627Z,76.20
2017-11-03T03:07:01.795Z,76.10
2017-11-03T03:09:29.927Z,75.90
2017-11-03T03:11:58.078Z,75.60
2017-11-03T03:14:26.349Z,75.50
2017-11-03T03:16:54.478Z,75.50
2017-11-03T03:19:23.408Z,75.80
2017-11-03T03:21:51.545Z,75.80
2017-11-03T03:24:20.492Z,75.50
2017-11-03T03:26:48.646Z,75.50
2017-11-03T03:29:16.789Z,75.30
2017-11-03T03:31:45.053Z,75.30
2017-11-03T03:34:13.965Z,75.40
2017-11-03T03:36:42.151Z,75.30
2017-11-03T03:39:10.300Z,75.50
2017-11-03T03:41:38.433Z,75.50
2017-11-03T03:44:06.604Z,75.70
2017-11-03T03:46:34.813Z,75.50
2017-11-03T03:49:03.718Z,75.60
2017-11-03T03:51:31.857Z,75.50
2017-11-03T03:54:00.021Z,75.50
2017-11-03T03:56:28.160Z,75.60
2017-11-03T03:58:56.337Z,75.40
2017-11-03T04:01:24.480Z,75.70
2017-11-03T04:03:53.576Z,76.50
2017-11-03T04:06:21.724Z,75.80
2017-11-03T04:08:50.633Z,75.60
2017-11-03T04:11:19.558Z,75.30
2017-11-03T04:13:47.695Z,75.30
2017-11-03T04:16:16.645Z,75.40
2017-11-03T04:18:44.794Z,76.10
2017-11-03T04:21:13.062Z,75.40
2017-11-03T04:23:41.228Z,75.40
2017-11-03T04:26:09.369Z,75.60
2017-11-03T04:28:38.307Z,75.60
2017-11-03T04:31:06.464Z,75.50
2017-11-03T04:33:34.597Z,75.70
2017-11-03T04:36:02.769Z,75.90
2017-11-03T04:38:30.917Z,76.10
2017-11-03T04:40:59.109Z,76.40
2017-11-03T04:43:27.253Z,76.40
2017-11-03T04:45:55.426Z,76.30
2017-11-03T04:48:23.569Z,76.30
2017-11-03T04:50:51.716Z,76.30
2017-11-03T04:53:19.889Z,76.40
2017-11-03T04:55:48.033Z,76.60
2017-11-03T04:58:16.317Z,76.50
2017-11-03T05:00:44.472Z,76.40
2017-11-03T05:03:12.682Z,76.60
2017-11-03T05:05:40.825Z,76.50
2017-11-03T05:08:08.968Z,76.40
2017-11-03T05:10:37.129Z,76.60
2017-11-03T05:13:06.033Z,76.40
2017-11-03T05:15:34.323Z,76.40
2017-11-03T05:18:02.474Z,76.00
2017-11-03T05:20:30.616Z,75.80
2017-11-03T05:22:58.792Z,75.90
2017-11-03T05:25:26.953Z,76.00
2017-11-03T05:27:55.100Z,75.70
2017-11-03T05:30:23.281Z,75.70
2017-11-03T05:32:51.425Z,75.50
2017-11-03T05:35:19.575Z,75.30
2017-11-03T05:37:48.528Z,75.10
2017-11-03T05:40:16.672Z,75.00
2017-11-03T05:42:44.840Z,75.10
2017-11-03T05:45:12.982Z,75.10
2017-11-03T05:47:41.261Z,75.20
2017-11-03T05:50:10.171Z,75.10
2017-11-03T05:52:38.339Z,75.10
2017-11-03T05:55:06.532Z,75.00
2017-11-03T05:57:34.667Z,75.00
2017-11-03T06:00:03.598Z,75.30
2017-11-03T06:02:31.753Z,75.00
2017-11-03T06:05:00.202Z,75.20
2017-11-03T06:07:28.350Z,75.10
2017-11-03T06:09:56.485Z,75.40
2017-11-03T06:12:24.648Z,75.70
2017-11-03T06:14:53.541Z,76.20
2017-11-03T06:17:21.721Z,76.10
2017-11-03T06:19:50.624Z,76.50
2017-11-03T06:22:18.757Z,76.50
2017-11-03T06:24:47.821Z,76.80
2017-11-03T06:27:15.970Z,76.80
2017-11-03T06:29:44.137Z,76.90
2017-11-03T06:32:12.278Z,76.70
2017-11-03T06:34:41.228Z,76.50
2017-11-03T06:37:09.369Z,76.50
2017-11-03T06:39:37.658Z,76.40
2017-11-03T06:42:05.793Z,76.40
2017-11-03T06:44:34.702Z,76.20
2017-11-03T06:47:02.874Z,76.20
2017-11-03T06:49:31.012Z,76.40
2017-11-03T06:51:59.158Z,76.50
2017-11-03T06:54:27.324Z,76.60
2017-11-03T06:56:55.630Z,76.40
2017-11-03T06:59:23.795Z,76.40
2017-11-03T07:01:51.938Z,76.40
2017-11-03T07:04:20.135Z,76.30
2017-11-03T07:06:48.272Z,76.30
2017-11-03T07:09:16.416Z,76.20
2017-11-03T07:11:45.367Z,76.20
2017-11-03T07:14:13.677Z,76.20
2017-11-03T07:16:41.821Z,76.20
2017-11-03T07:19:09.982Z,76.40
2017-11-03T07:21:38.149Z,76.50
2017-11-03T07:24:06.297Z,76.60
2017-11-03T07:26:34.463Z,76.60
2017-11-03T07:29:02.608Z,76.40
2017-11-03T07:31:30.835Z,76.80
2017-11-03T07:33:59.001Z,76.90
2017-11-03T07:36:27.137Z,77.00
2017-11-03T07:39:02.938Z,77.10
2017-11-03T07:41:31.089Z,77.40
2017-11-03T07:43:59.253Z,77.60
2017-11-03T07:46:27.393Z,77.60
2017-11-03T07:48:55.598Z,77.80
2017-11-03T07:51:24.504Z,77.40
2017-11-03T07:53:53.404Z,77.50
2017-11-03T07:56:21.576Z,77.50
2017-11-03T07:58:49.716Z,77.50
2017-11-03T08:01:17.862Z,77.50
2017-11-03T08:03:46.068Z,77.50
2017-11-03T08:06:14.206Z,77.70
2017-11-03T08:08:42.409Z,77.50
2017-11-03T08:11:10.931Z,77.20
2017-11-03T08:13:43.041Z,77.20
2017-11-03T08:16:11.184Z,77.10
2017-11-03T08:18:39.339Z,77.10
2017-11-03T08:21:07.513Z,77.10
2017-11-03T08:23:35.669Z,77.30
2017-11-03T08:26:03.888Z,77.30
2017-11-03T08:28:32.017Z,77.20
2017-11-03T08:31:00.962Z,77.20
2017-11-03T08:33:29.111Z,77.20
2017-11-03T08:35:57.260Z,77.20
2017-11-03T08:38:25.449Z,77.20
2017-11-03T08:40:53.598Z,76.90
2017-11-03T08:43:21.869Z,77.20
2017-11-03T08:45:50.779Z,77.50
2017-11-03T08:48:18.960Z,77.50
2017-11-03T08:50:47.121Z,77.10
2017-11-03T08:53:16.070Z,76.90
2017-11-03T08:55:44.197Z,76.90
2017-11-03T08:58:12.420Z,76.30
2017-11-03T09:00:40.549Z,76.30
2017-11-03T09:03:08.697Z,76.20
2017-11-03T09:05:37.641Z,76.50
2017-11-03T09:08:05.782Z,76.40
2017-11-03T09:10:33.912Z,76.20
2017-11-03T09:13:02.091Z,76.00
2017-11-03T09:15:30.377Z,75.70
2017-11-03T09:17:59.312Z,76.00
2017-11-03T09:20:27.489Z,76.00
2017-11-03T09:22:55.633Z,75.80
2017-11-03T09:25:23.789Z,75.80
2017-11-03T09:27:52.726Z,75.90
2017-11-03T09:30:20.905Z,75.80
2017-11-03T09:32:49.045Z,76.10
2017-11-03T09:35:17.341Z,75.90
2017-11-03T09:37:45.491Z,75.90
2017-11-03T09:40:14.417Z,76.00
2017-11-03T09:42:42.565Z,76.00
2017-11-03T09:45:10.705Z,75.50
2017-11-03T09:47:38.884Z,75.60
2017-11-03T09:50:07.026Z,75.90
2017-11-03T09:52:35.285Z,76.30
2017-11-03T09:55:03.438Z,76.40
2017-11-03T09:57:31.643Z,76.00
2017-11-03T09:59:59.764Z,76.00
2017-11-03T10:02:27.918Z,75.30
2017-11-03T10:04:56.088Z,75.50
2017-11-03T10:07:24.244Z,75.20
2017-11-03T10:09:52.532Z,75.60
2017-11-03T10:12:20.676Z,76.30
2017-11-03T10:14:48.815Z,76.90
2017-11-03T10:17:17.003Z,76.30
2017-11-03T10:19:45.148Z,75.00
2017-11-03T10:22:13.326Z,74.80
2017-11-03T10:24:41.467Z,73.90
2017-11-03T10:27:09.740Z,74.10
2017-11-03T10:29:37.882Z,74.60
2017-11-03T10:32:06.069Z,74.90
2017-11-03T10:34:34.217Z,74.30
2017-11-03T10:37:02.368Z,74.00
2017-11-03T10:39:31.316Z,72.50
2017-11-03T10:41:59.469Z,72.50
2017-11-03T10:44:27.609Z,72.50
2017-11-03T10:46:56.655Z,72.30
2017-11-03T10:49:24.801Z,72.30
2017-11-03T10:51:52.972Z,72.10
2017-11-03T10:54:21.112Z,72.00
2017-11-03T10:56:49.300Z,72.50
2017-11-03T10:59:17.440Z,71.90
2017-11-03T11:01:45.600Z,73.20
2017-11-03T11:04:13.898Z,72.60
2017-11-03T11:06:42.038Z,71.70
2017-11-03T11:09:10.209Z,72.00
2017-11-03T11:11:38.355Z,71.80
2017-11-03T11:14:06.526Z,71.80
2017-11-03T11:16:34.672Z,72.00
2017-11-03T11:19:02.810Z,71.70
2017-11-03T11:21:31.116Z,71.50
2017-11-03T11:23:59.265Z,71.30
2017-11-03T11:26:27.444Z,70.50
2017-11-03T11:28:55.594Z,70.50
2017-11-03T11:31:23.774Z,70.30
2017-11-03T11:33:51.930Z,69.60
2017-11-03T11:36:20.144Z,70.90
2017-11-03T11:38:48.282Z,70.10
2017-11-03T11:41:16.431Z,70.80
2017-11-03T11:43:45.364Z,69.90
2017-11-03T11:46:13.513Z,69.80
2017-11-03T11:48:41.694Z,69.90
2017-11-03T11:51:09.837Z,69.60
2017-11-03T11:53:38.736Z,69.40
2017-11-03T11:56:07.025Z,69.30
2017-11-03T11:58:35.176Z,69.70
2017-11-03T12:01:04.107Z,70.30
2017-11-03T12:03:32.288Z,70.20
2017-11-03T12:06:00.437Z,70.60
2017-11-03T12:08:28.604Z,69.90
2017-11-03T12:10:56.758Z,68.70
2017-11-03T12:13:25.806Z,69.30
2017-11-03T12:15:53.952Z,69.30
2017-11-03T12:18:22.125Z,69.70
2017-11-03T12:20:50.310Z,70.00
2017-11-03T12:23:18.460Z,70.70
2017-11-03T12:25:46.645Z,70.70
2017-11-03T12:28:14.783Z,69.40
2017-11-03T12:30:42.933Z,69.30
2017-11-03T12:33:11.206Z,68.80
2017-11-03T12:35:39.348Z,68.70
2017-11-03T12:38:07.513Z,68.30
2017-11-03T12:40:35.660Z,67.80
2017-11-03T12:43:04.584Z,68.00
2017-11-03T12:45:32.735Z,68.00
2017-11-03T12:48:01.029Z,68.40
2017-11-03T12:50:29.203Z,68.80
2017-11-03T12:52:58.092Z,67.80
2017-11-03T12:55:26.260Z,67.80
2017-11-03T12:57:54.432Z,68.00
2017-11-03T13:00:23.373Z,67.50
2017-11-03T13:02:51.514Z,67.50
2017-11-03T13:05:19.684Z,68.50
2017-11-03T13:07:47.982Z,68.40
2017-11-03T13:10:16.127Z,68.60
2017-11-03T13:12:44.290Z,67.90
2017-11-03T13:15:12.436Z,68.80
2017-11-03T13:17:40.624Z,68.40
2017-11-03T13:20:09.524Z,68.80
2017-11-03T13:22:37.666Z,68.70
2017-11-03T13:25:05.956Z,67.40
2017-11-03T13:27:34.093Z,67.60
2017-11-03T13:30:02.283Z,68.00
2017-11-03T13:32:30.441Z,67.60
2017-11-03T13:34:58.622Z,67.80
2017-11-03T13:37:26.810Z,67.50
2017-11-03T13:39:54.957Z,68.20
2017-11-03T13:42:23.222Z,68.20
2017-11-03T13:44:52.132Z,67.40
2017-11-03T13:47:20.318Z,67.40
2017-11-03T13:49:48.471Z,67.50
2017-11-03T13:52:16.631Z,67.00
2017-11-03T13:54:44.807Z,66.90
2017-11-03T13:57:12.976Z,66.80
2017-11-03T13:59:41.276Z,67.60
2017-11-03T14:02:09.413Z,66.80
2017-11-03T14:04:37.576Z,66.90
2017-11-03T14:07:05.753Z,67.40
2017-11-03T14:09:33.923Z,66.50
2017-11-03T14:12:02.049Z,66.00
2017-11-03T14:14:30.242Z,66.20
2017-11-03T14:16:58.506Z,66.30
2017-11-03T14:19:26.657Z,66.50
2017-11-03T14:21:54.822Z,65.80
2017-11-03T14:24:22.973Z,66.10
2017-11-03T14:26:51.137Z,65.30
2017-11-03T14:29:19.292Z,65.40
2017-11-03T14:31:47.588Z,65.50
2017-11-03T14:34:15.747Z,64.60
2017-11-03T14:36:43.914Z,64.70
2017-11-03T14:39:12.050Z,64.60
2017-11-03T14:41:40.228Z,63.40
2017-11-03T14:44:08.404Z,64.30
2017-11-03T14:46:36.557Z,64.10
2017-11-03T14:49:04.853Z,63.10
2017-11-03T14:51:33.004Z,63.10
2017-11-03T14:54:01.144Z,63.10
2017-11-03T14:56:29.326Z,64.00
2017-11-03T14:58:57.460Z,63.90
2017-11-03T15:01:25.661Z,63.20
2017-11-03T15:03:54.602Z,63.40
2017-11-03T15:06:22.740Z,62.50
2017-11-03T15:08:51.030Z,62.20
2017-11-03T15:11:19.169Z,62.50
2017-11-03T15:13:48.116Z,61.40
2017-11-03T15:16:16.287Z,61.30
2017-11-03T15:18:44.480Z,61.50
2017-11-03T15:21:12.625Z,61.80
2017-11-03T15:23:40.917Z,62.00
2017-11-03T15:26:09.098Z,62.20
2017-11-03T15:28:37.247Z,62.50
2017-11-03T15:31:05.417Z,62.20
2017-11-03T15:33:33.564Z,62.50
2017-11-03T15:36:02.536Z,62.90
2017-11-03T15:38:30.684Z,62.90
2017-11-03T15:40:58.974Z,63.20
2017-11-03T15:43:27.147Z,63.40
2017-11-03T15:45:55.296Z,63.40
2017-11-03T15:48:23.493Z,64.00
2017-11-03T15:50:51.633Z,63.50
2017-11-03T15:53:19.829Z,63.10
2017-11-03T15:55:47.980Z,63.40
2017-11-03T15:58:16.119Z,63.70
2017-11-03T16:00:45.184Z,63.80
2017-11-03T16:03:13.327Z,63.80
2017-11-03T16:05:41.503Z,63.80
2017-11-03T16:08:09.664Z,64.10
2017-11-03T16:10:37.830Z,64.30
2017-11-03T16:13:06.002Z,64.50
2017-11-03T16:15:34.143Z,64.80
2017-11-03T16:18:03.215Z,65.70
2017-11-03T16:20:31.360Z,64.90
2017-11-03T16:22:59.530Z,64.90
2017-11-03T16:25:27.722Z,65.10
2017-11-03T16:27:55.865Z,65.10
2017-11-03T16:30:24.053Z,65.10
2017-11-03T16:32:52.206Z,65.20
2017-11-03T16:35:20.428Z,65.20
2017-11-03T16:37:48.573Z,65.40
2017-11-03T16:40:16.733Z,65.50
2017-11-03T16:42:44.900Z,65.50
2017-11-03T16:45:13.818Z,65.70
2017-11-03T16:47:42.006Z,65.70
2017-11-03T16:50:10.166Z,65.90
2017-11-03T16:52:38.320Z,66.10
2017-11-03T16:55:14.946Z,66.90
2017-11-03T16:57:43.109Z,66.10
2017-11-03T17:00:11.295Z,66.30
2017-11-03T17:02:39.443Z,66.40
2017-11-03T17:05:07.657Z,66.40
2017-11-03T17:07:35.805Z,66.50
2017-11-03T17:10:03.970Z,66.50
2017-11-03T17:12:32.257Z,66.70
2017-11-03T17:15:00.413Z,66.70
2017-11-03T17:17:28.596Z,66.80
2017-11-03T17:19:56.745Z,66.80
2017-11-03T17:22:24.902Z,66.90
2017-11-03T17:24:53.081Z,67.00
2017-11-03T17:27:21.293Z,67.00
2017-11-03T17:29:49.475Z,67.10
2017-11-03T17:32:17.673Z,67.30
2017-11-03T17:34:46.599Z,67.30
2017-11-03T17:37:14.758Z,67.30
2017-11-03T17:39:42.943Z,67.40
2017-11-03T17:42:11.092Z,67.30
2017-11-03T17:44:40.138Z,67.60
2017-11-03T17:47:08.309Z,67.50
2017-11-03T17:49:36.593Z,68.30
2017-11-03T17:52:04.781Z,67.70
2017-11-03T17:54:32.922Z,67.80
2017-11-03T17:57:01.092Z,67.90
2017-11-03T17:59:29.237Z,67.90
2017-11-03T18:01:58.301Z,68.20
2017-11-03T18:04:26.775Z,68.10
2017-11-03T18:06:54.945Z,68.30
2017-11-03T18:09:23.167Z,68.30
2017-11-03T18:11:51.315Z,68.30
2017-11-03T18:14:19.482Z,68.30
2017-11-03T18:16:47.636Z,68.20
2017-11-03T18:19:15.803Z,68.10
2017-11-03T18:21:43.991Z,68.20
2017-11-03T18:24:12.169Z,68.30
2017-11-03T18:26:40.462Z,68.30
2017-11-03T18:29:08.610Z,68.40
2017-11-03T18:31:36.819Z,68.50
2017-11-03T18:34:04.955Z,68.50
2017-11-03T18:36:33.096Z,68.80
2017-11-03T18:39:01.426Z,68.60
2017-11-03T18:41:29.576Z,68.70
2017-11-03T18:43:57.750Z,68.60
2017-11-03T18:46:25.953Z,68.80
2017-11-03T18:48:54.933Z,68.80
2017-11-03T18:51:23.103Z,68.80
2017-11-03T18:53:51.248Z,68.90
2017-11-03T18:56:19.556Z,69.00
2017-11-03T18:58:47.703Z,69.00
2017-11-03T19:01:15.880Z,69.10
2017-11-03T19:03:44.084Z,69.00
2017-11-03T19:06:12.240Z,69.10
2017-11-03T19:08:40.433Z,68.60
2017-11-03T19:11:08.593Z,69.20
2017-11-03T19:13:37.603Z,69.10
2017-11-03T19:16:05.773Z,69.50
2017-11-03T19:18:33.963Z,69.60
2017-11-03T19:21:02.907Z,69.80
2017-11-03T19:23:31.062Z,70.40
2017-11-03T19:25:59.241Z,70.50
2017-11-03T19:28:27.403Z,69.90
2017-11-03T19:30:55.627Z,70.20
2017-11-03T19:33:23.771Z,70.80
2017-11-03T19:35:52.077Z,71.10
2017-11-03T19:38:20.248Z,71.60
2017-11-03T19:40:48.391Z,71.50
2017-11-03T19:43:16.587Z,71.70
2017-11-03T19:45:44.738Z,72.00
2017-11-03T19:48:13.046Z,72.00
2017-11-03T19:50:41.198Z,73.00
2017-11-03T19:53:09.338Z,72.20
2017-11-03T19:55:37.531Z,72.40
2017-11-03T19:58:05.676Z,72.80
2017-11-03T20:00:33.873Z,73.10
2017-11-03T20:03:02.083Z,72.90
2017-11-03T20:05:30.387Z,72.90
2017-11-03T20:07:58.598Z,72.90
2017-11-03T20:10:26.732Z,73.70
2017-11-03T20:12:54.910Z,73.40
2017-11-03T20:15:23.836Z,73.50
2017-11-03T20:17:52.023Z,73.50
2017-11-03T20:20:20.205Z,73.60
2017-11-03T20:22:48.520Z,73.50
2017-11-03T20:25:16.681Z,73.60
2017-11-03T20:27:44.826Z,73.50
2017-11-03T20:30:13.057Z,73.30
2017-11-03T20:32:41.964Z,73.10
2017-11-03T20:35:10.154Z,73.10
2017-11-03T20:37:38.347Z,73.10
2017-11-03T20:40:06.480Z,73.00
2017-11-03T20:42:34.717Z,73.00
2017-11-03T20:45:02.890Z,73.00
2017-11-03T20:47:31.043Z,72.80
2017-11-03T20:49:59.373Z,72.50
2017-11-03T20:52:27.533Z,72.40
2017-11-03T20:54:56.462Z,72.20
2017-11-03T20:57:24.610Z,72.20
2017-11-03T20:59:52.858Z,72.00
2017-11-03T21:02:21.621Z,71.90
2017-11-03T21:04:49.829Z,72.60
2017-11-03T21:07:17.989Z,71.80
2017-11-03T21:09:46.137Z,71.90
2017-11-03T21:12:14.306Z,71.80
2017-11-03T21:14:42.448Z,72.00
2017-11-03T21:17:10.749Z,71.80
2017-11-03T21:19:38.932Z,71.80
2017-11-03T21:22:07.110Z,71.70
2017-11-03T21:24:35.318Z,71.40
2017-11-03T21:27:04.245Z,71.60
2017-11-03T21:29:32.425Z,71.60
2017-11-03T21:32:00.579Z,71.70
2017-11-03T21:34:28.773Z,71.60
2017-11-03T21:36:56.945Z,71.70
2017-11-03T21:39:25.257Z,71.80
2017-11-03T21:41:53.392Z,71.90
2017-11-03T21:44:21.538Z,71.70
2017-11-03T21:46:50.484Z,71.50
2017-11-03T21:49:18.633Z,71.50
2017-11-03T21:51:46.850Z,71.60
2017-11-03T21:54:15.001Z,73.30
2017-11-03T21:56:43.148Z,73.30
2017-11-03T21:59:11.441Z,73.10
2017-11-03T22:01:39.583Z,72.80
2017-11-03T22:04:07.803Z,72.80
2017-11-03T22:06:35.938Z,72.70
2017-11-03T22:09:04.118Z,72.70
2017-11-03T22:11:32.266Z,72.70
2017-11-03T22:14:01.186Z,72.70
2017-11-03T22:16:29.352Z,72.80
2017-11-03T22:18:57.554Z,72.80
2017-11-03T22:21:25.689Z,72.80
2017-11-03T22:23:54.587Z,73.00
2017-11-03T22:26:22.754Z,72.90
2017-11-03T22:28:50.904Z,72.90
2017-11-03T22:31:19.201Z,72.70
2017-11-03T22:33:47.373Z,72.70
2017-11-03T22:36:15.573Z,72.80
2017-11-03T22:38:43.727Z,72.90
2017-11-03T22:41:11.938Z,72.80
2017-11-03T22:43:40.090Z,72.90
2017-11-03T22:46:08.240Z,72.90
2017-11-03T22:48:36.553Z,72.80
2017-11-03T22:51:04.725Z,72.70
2017-11-03T22:53:32.865Z,72.70
2017-11-03T22:56:01.032Z,72.80
2017-11-03T22:58:29.936Z,73.10
2017-11-03T23:00:58.098Z,73.00
2017-11-03T23:03:26.298Z,73.20
2017-11-03T23:05:54.462Z,73.20
2017-11-03T23:08:22.718Z,73.20
2017-11-03T23:10:51.629Z,73.30
2017-11-03T23:13:19.780Z,73.30
2017-11-03T23:15:48.686Z,73.30
2017-11-03T23:18:16.849Z,73.30
2017-11-03T23:20:45.785Z,73.20
2017-11-03T23:23:13.945Z,73.20
2017-11-03T23:25:42.241Z,73.10
2017-11-03T23:28:10.380Z,73.20
2017-11-03T23:30:38.525Z,73.20
2017-11-03T23:33:07.501Z,73.30
2017-11-03T23:35:35.641Z,73.30
2017-11-03T23:38:03.846Z,73.40
2017-11-03T23:40:32.017Z,73.70
2017-11-03T23:43:00.297Z,73.90
2017-11-03T23:45:28.437Z,73.80
2017-11-03T23:47:56.573Z,74.10
2017-11-03T23:50:25.505Z,74.20
2017-11-03T23:52:53.660Z,74.10
2017-11-03T23:55:21.827Z,74.10
2017-11-03T23:57:49.965Z,74.20
